Detall de PIREP

Printer-friendly versionPDF version

[2013/10/12 14:18:00]
Flight IATA:CT1001
Pilot Number:012
Company ICAO:CAT
Aircraft Type:F28/A
PAX:85
Departing Airport: LIEA
Destination Airport: LEIB
Alternate Airport:LEPA
Online: VATSIM
Route:SUPUX UZ924 RIPAL UM603 MORSS
Flight Level:F270
No Slew and time accel
No pause
Crash detect
Detect pilot in Cockpit between each 30 and 45 minutes
14:18 Zero fuel Weight: 55416 Lbs, Fuel Weight: 9195 Lbs
14:18 VATSIM:LIEA 121350Z 03006KT 340V080 CAVOK 23/13 Q1019
14:18 VATSIM:LEIB 121400Z 21005KT 9999 FEW045 25/17 Q1017 NOSIG
14:18 VOICE CATALONIAN / MEDITERRANEAN ODYSSEY
14:59 Parking Brakes off
15:07 Take-off
15:07 Take off Weight: 64012 Lbs
15:07 Wind: 027º @ 004 Knots Heading: 203º
15:07 POS N40º 37´ 37´´ E008º 17´ 16´´
15:07 Gear Up: 157 Knots
15:07 Flaps:1 at 157 Knots
15:07 Flaps:0 at 194 Knots
15:22 Wind:256º@062 Knots Heading: 259º Ground Speed: 298 Knots Altitude 26778 ft
15:22 TOC
15:22 Fuel Weight: 6747 Lb
15:37 Wind:280º@053 Knots Heading: 261º Ground Speed: 385 Knots Altitude 27106 ft
15:49 TOD
15:49 Fuel Weight: 4637 Lb
15:52 Wind:274º@044 Knots Heading: 251º Ground Speed: 393 Knots Altitude 22916 ft
16:07 Wind:219º@005 Knots Heading: 230º Ground Speed: 210 Knots Altitude 2293 ft
16:07 Flaps:1 at 205 Knots
16:08 Flaps:2 at 142 Knots
16:08 Gear Down: 141 Knots
16:08 Flaps:3 at 141 Knots
16:08 Flaps:4 at 138 Knots
16:08 Flaps:5 at 130 Knots
16:11 TouchDown:Rate -236 ft/min Speed: 105 Knots
16:12 Flaps:4 at 69 Knots
16:12 VATSIM:LEIB 121600Z 19003KT 9999 FEW045 24/18 Q1017 NOSIG
16:12 Land
16:12 Wind:219º@004 Knots
16:12 Heading: 241º
16:12 Flight Duration: 01:05
16:12 Landing Weight: 59227 Lbs
16:12 POS N38º 52´ 26´´ E001º 22´ 33´´
16:13 Parking brakes on
16:13 Block to Block Duration: 01:14
16:13 Final Fuel: 3785 Lbls
16:13 Spent Fuel: 5410 Lbls
16:13 Flight Length: 342 NM
16:13 TOD Land Length: 95 NM

Exportar CSV

Powered by Drupal - Modified by Danger4k